sensor_id;sensor_type;location;lat;lon;timestamp;temperature;humidity
14749;DHT22;7466;53.574;9.976;2023-07-31T00:01:56;15.10;99.90
14749;DHT22;7466;53.574;9.976;2023-07-31T00:04:23;15.20;99.90
14749;DHT22;7466;53.574;9.976;2023-07-31T00:06:50;15.20;99.90
14749;DHT22;7466;53.574;9.976;2023-07-31T00:09:16;15.20;99.90
14749;DHT22;7466;53.574;9.976;2023-07-31T00:11:43;15.30;99.90
14749;DHT22;7466;53.574;9.976;2023-07-31T00:14:11;15.30;99.90
14749;DHT22;7466;53.574;9.976;2023-07-31T00:16:38;15.40;99.90
14749;DHT22;7466;53.574;9.976;2023-07-31T00:19:05;15.40;99.90
14749;DHT22;7466;53.574;9.976;2023-07-31T00:21:31;15.50;99.90
14749;DHT22;7466;53.574;9.976;2023-07-31T00:23:58;15.50;99.90
14749;DHT22;7466;53.574;9.976;2023-07-31T00:26:25;15.50;99.90
14749;DHT22;7466;53.574;9.976;2023-07-31T00:28:51;15.50;99.90
14749;DHT22;7466;53.574;9.976;2023-07-31T00:31:19;15.50;99.90
14749;DHT22;7466;53.574;9.976;2023-07-31T00:33:46;15.50;99.90
14749;DHT22;7466;53.574;9.976;2023-07-31T00:36:12;15.50;99.90
14749;DHT22;7466;53.574;9.976;2023-07-31T00:38:39;15.50;99.90
14749;DHT22;7466;53.574;9.976;2023-07-31T00:41:06;15.50;99.90
14749;DHT22;7466;53.574;9.976;2023-07-31T00:43:32;15.50;99.90
14749;DHT22;7466;53.574;9.976;2023-07-31T00:45:59;15.50;99.90
14749;DHT22;7466;53.574;9.976;2023-07-31T00:48:28;15.50;99.90
14749;DHT22;7466;53.574;9.976;2023-07-31T00:50:55;15.50;99.90
14749;DHT22;7466;53.574;9.976;2023-07-31T00:53:23;15.50;99.90
14749;DHT22;7466;53.574;9.976;2023-07-31T00:55:51;15.40;99.90
14749;DHT22;7466;53.574;9.976;2023-07-31T00:58:18;15.50;99.90
14749;DHT22;7466;53.574;9.976;2023-07-31T01:00:45;15.40;99.90
14749;DHT22;7466;53.574;9.976;2023-07-31T01:03:12;15.40;99.90
14749;DHT22;7466;53.574;9.976;2023-07-31T01:05:49;15.40;99.90
14749;DHT22;7466;53.574;9.976;2023-07-31T01:08:26;15.40;99.90
14749;DHT22;7466;53.574;9.976;2023-07-31T01:11:00;15.40;99.90
14749;DHT22;7466;53.574;9.976;2023-07-31T01:13:28;15.40;99.90
14749;DHT22;7466;53.574;9.976;2023-07-31T01:15:55;15.30;99.90
14749;DHT22;7466;53.574;9.976;2023-07-31T01:18:21;15.30;99.90
14749;DHT22;7466;53.574;9.976;2023-07-31T01:20:54;15.30;99.90
14749;DHT22;7466;53.574;9.976;2023-07-31T01:23:37;15.30;99.90
14749;DHT22;7466;53.574;9.976;2023-07-31T01:26:12;15.30;99.90
14749;DHT22;7466;53.574;9.976;2023-07-31T01:28:49;15.30;99.90
14749;DHT22;7466;53.574;9.976;2023-07-31T01:31:20;15.30;99.90
14749;DHT22;7466;53.574;9.976;2023-07-31T01:33:50;15.30;99.90
14749;DHT22;7466;53.574;9.976;2023-07-31T01:36:17;15.30;99.90
14749;DHT22;7466;53.574;9.976;2023-07-31T01:38:44;15.30;99.90
14749;DHT22;7466;53.574;9.976;2023-07-31T01:41:12;15.30;99.90
14749;DHT22;7466;53.574;9.976;2023-07-31T01:43:39;15.30;99.90
14749;DHT22;7466;53.574;9.976;2023-07-31T01:46:05;15.30;99.90
14749;DHT22;7466;53.574;9.976;2023-07-31T01:48:32;15.30;99.90
14749;DHT22;7466;53.574;9.976;2023-07-31T01:51:02;15.30;99.90
14749;DHT22;7466;53.574;9.976;2023-07-31T01:53:29;15.30;99.90
14749;DHT22;7466;53.574;9.976;2023-07-31T01:55:56;15.30;99.90
14749;DHT22;7466;53.574;9.976;2023-07-31T01:58:24;15.30;99.90
14749;DHT22;7466;53.574;9.976;2023-07-31T02:00:51;15.40;99.90
14749;DHT22;7466;53.574;9.976;2023-07-31T02:03:16;15.40;99.90
14749;DHT22;7466;53.574;9.976;2023-07-31T02:05:46;15.40;99.90
14749;DHT22;7466;53.574;9.976;2023-07-31T02:08:13;15.40;99.90
14749;DHT22;7466;53.574;9.976;2023-07-31T02:10:40;15.30;99.90
14749;DHT22;7466;53.574;9.976;2023-07-31T02:13:07;15.40;99.90
14749;DHT22;7466;53.574;9.976;2023-07-31T02:15:36;15.40;99.90
14749;DHT22;7466;53.574;9.976;2023-07-31T02:18:02;15.40;99.90
14749;DHT22;7466;53.574;9.976;2023-07-31T02:20:29;15.40;99.90
14749;DHT22;7466;53.574;9.976;2023-07-31T02:22:56;15.40;99.90
14749;DHT22;7466;53.574;9.976;2023-07-31T02:25:22;15.40;99.90
14749;DHT22;7466;53.574;9.976;2023-07-31T02:27:49;15.40;99.90
14749;DHT22;7466;53.574;9.976;2023-07-31T02:30:16;15.40;99.90
14749;DHT22;7466;53.574;9.976;2023-07-31T02:32:44;15.40;99.90
14749;DHT22;7466;53.574;9.976;2023-07-31T02:35:11;15.40;99.90
14749;DHT22;7466;53.574;9.976;2023-07-31T02:37:40;15.40;99.90
14749;DHT22;7466;53.574;9.976;2023-07-31T02:40:08;15.40;99.90
14749;DHT22;7466;53.574;9.976;2023-07-31T02:42:34;15.40;99.90
14749;DHT22;7466;53.574;9.976;2023-07-31T02:45:01;15.40;99.90
14749;DHT22;7466;53.574;9.976;2023-07-31T02:47:28;15.40;99.90
14749;DHT22;7466;53.574;9.976;2023-07-31T02:49:56;15.40;99.90
14749;DHT22;7466;53.574;9.976;2023-07-31T02:52:23;15.40;99.90
14749;DHT22;7466;53.574;9.976;2023-07-31T02:54:49;15.40;99.90
14749;DHT22;7466;53.574;9.976;2023-07-31T02:57:16;15.40;99.90
14749;DHT22;7466;53.574;9.976;2023-07-31T02:59:43;15.40;99.90
14749;DHT22;7466;53.574;9.976;2023-07-31T03:02:09;15.40;99.90
14749;DHT22;7466;53.574;9.976;2023-07-31T03:04:36;15.40;99.90
14749;DHT22;7466;53.574;9.976;2023-07-31T03:07:05;15.40;99.90
14749;DHT22;7466;53.574;9.976;2023-07-31T03:09:32;15.40;99.90
14749;DHT22;7466;53.574;9.976;2023-07-31T03:11:58;15.40;99.90
14749;DHT22;7466;53.574;9.976;2023-07-31T03:14:25;15.40;99.90
14749;DHT22;7466;53.574;9.976;2023-07-31T03:16:53;15.40;99.90
14749;DHT22;7466;53.574;9.976;2023-07-31T03:19:19;15.30;99.90
14749;DHT22;7466;53.574;9.976;2023-07-31T03:21:46;15.40;99.90
14749;DHT22;7466;53.574;9.976;2023-07-31T03:24:14;15.30;99.90
14749;DHT22;7466;53.574;9.976;2023-07-31T03:26:41;15.40;99.90
14749;DHT22;7466;53.574;9.976;2023-07-31T03:29:08;15.30;99.90
14749;DHT22;7466;53.574;9.976;2023-07-31T03:31:34;15.40;99.90
14749;DHT22;7466;53.574;9.976;2023-07-31T03:34:01;15.30;99.90
14749;DHT22;7466;53.574;9.976;2023-07-31T03:36:28;15.30;99.90
14749;DHT22;7466;53.574;9.976;2023-07-31T03:38:54;15.40;99.90
14749;DHT22;7466;53.574;9.976;2023-07-31T03:41:22;15.40;99.90
14749;DHT22;7466;53.574;9.976;2023-07-31T03:43:51;15.40;99.90
14749;DHT22;7466;53.574;9.976;2023-07-31T03:46:18;15.40;99.90
14749;DHT22;7466;53.574;9.976;2023-07-31T03:48:45;15.50;99.90
14749;DHT22;7466;53.574;9.976;2023-07-31T03:51:11;15.50;99.90
14749;DHT22;7466;53.574;9.976;2023-07-31T03:53:38;15.40;99.90
14749;DHT22;7466;53.574;9.976;2023-07-31T03:56:05;15.50;99.90
14749;DHT22;7466;53.574;9.976;2023-07-31T03:58:33;15.50;99.90
14749;DHT22;7466;53.574;9.976;2023-07-31T04:01:00;15.50;99.90
14749;DHT22;7466;53.574;9.976;2023-07-31T04:03:27;15.50;99.90
14749;DHT22;7466;53.574;9.976;2023-07-31T04:05:54;15.50;99.90
14749;DHT22;7466;53.574;9.976;2023-07-31T04:08:21;15.50;99.90
14749;DHT22;7466;53.574;9.976;2023-07-31T04:10:48;15.50;99.90
14749;DHT22;7466;53.574;9.976;2023-07-31T04:13:15;15.50;99.90
14749;DHT22;7466;53.574;9.976;2023-07-31T04:15:48;15.50;99.90
14749;DHT22;7466;53.574;9.976;2023-07-31T04:18:15;15.50;99.90
14749;DHT22;7466;53.574;9.976;2023-07-31T04:20:42;15.50;99.90
14749;DHT22;7466;53.574;9.976;2023-07-31T04:23:09;15.50;99.90
14749;DHT22;7466;53.574;9.976;2023-07-31T04:25:36;15.50;99.90
14749;DHT22;7466;53.574;9.976;2023-07-31T04:28:02;15.40;99.90
14749;DHT22;7466;53.574;9.976;2023-07-31T04:30:29;15.40;99.90
14749;DHT22;7466;53.574;9.976;2023-07-31T04:32:57;15.40;99.90
14749;DHT22;7466;53.574;9.976;2023-07-31T04:35:24;15.40;99.90
14749;DHT22;7466;53.574;9.976;2023-07-31T04:37:50;15.40;99.90
14749;DHT22;7466;53.574;9.976;2023-07-31T04:40:17;15.40;99.90
14749;DHT22;7466;53.574;9.976;2023-07-31T04:42:44;15.40;99.90
14749;DHT22;7466;53.574;9.976;2023-07-31T04:45:11;15.40;99.90
14749;DHT22;7466;53.574;9.976;2023-07-31T04:47:38;15.30;99.90
14749;DHT22;7466;53.574;9.976;2023-07-31T04:50:07;15.30;99.90
14749;DHT22;7466;53.574;9.976;2023-07-31T04:52:34;15.30;99.90
14749;DHT22;7466;53.574;9.976;2023-07-31T04:55:01;15.30;99.90
14749;DHT22;7466;53.574;9.976;2023-07-31T04:57:28;15.30;99.90
14749;DHT22;7466;53.574;9.976;2023-07-31T04:59:55;15.30;99.90
14749;DHT22;7466;53.574;9.976;2023-07-31T05:02:21;15.30;99.90
14749;DHT22;7466;53.574;9.976;2023-07-31T05:04:48;15.30;99.90
14749;DHT22;7466;53.574;9.976;2023-07-31T05:07:16;15.30;99.90
14749;DHT22;7466;53.574;9.976;2023-07-31T05:09:43;15.30;99.90
14749;DHT22;7466;53.574;9.976;2023-07-31T05:12:10;15.30;99.90
14749;DHT22;7466;53.574;9.976;2023-07-31T05:14:36;15.30;99.90
14749;DHT22;7466;53.574;9.976;2023-07-31T05:17:04;15.20;99.90
14749;DHT22;7466;53.574;9.976;2023-07-31T05:19:30;15.20;99.90
14749;DHT22;7466;53.574;9.976;2023-07-31T05:21:57;15.20;99.90
14749;DHT22;7466;53.574;9.976;2023-07-31T05:24:26;15.20;99.90
14749;DHT22;7466;53.574;9.976;2023-07-31T05:26:52;15.20;99.90
14749;DHT22;7466;53.574;9.976;2023-07-31T05:29:19;15.20;99.90
14749;DHT22;7466;53.574;9.976;2023-07-31T05:31:46;15.20;99.90
14749;DHT22;7466;53.574;9.976;2023-07-31T05:34:13;15.20;99.90
14749;DHT22;7466;53.574;9.976;2023-07-31T05:36:40;15.20;99.90
14749;DHT22;7466;53.574;9.976;2023-07-31T05:39:07;15.20;99.90
14749;DHT22;7466;53.574;9.976;2023-07-31T05:41:35;15.20;99.90
14749;DHT22;7466;53.574;9.976;2023-07-31T05:44:02;15.20;99.90
14749;DHT22;7466;53.574;9.976;2023-07-31T05:46:29;15.20;99.90
14749;DHT22;7466;53.574;9.976;2023-07-31T05:48:56;15.10;99.90
14749;DHT22;7466;53.574;9.976;2023-07-31T05:51:25;15.20;99.90
14749;DHT22;7466;53.574;9.976;2023-07-31T05:53:52;15.20;99.90
14749;DHT22;7466;53.574;9.976;2023-07-31T05:56:18;15.20;99.90
14749;DHT22;7466;53.574;9.976;2023-07-31T05:58:46;15.20;99.90
14749;DHT22;7466;53.574;9.976;2023-07-31T06:01:15;15.20;99.90
14749;DHT22;7466;53.574;9.976;2023-07-31T06:03:42;15.20;99.90
14749;DHT22;7466;53.574;9.976;2023-07-31T06:06:08;15.30;99.90
14749;DHT22;7466;53.574;9.976;2023-07-31T06:08:35;15.30;99.90
14749;DHT22;7466;53.574;9.976;2023-07-31T06:11:02;15.30;99.90
14749;DHT22;7466;53.574;9.976;2023-07-31T06:13:29;15.40;99.90
14749;DHT22;7466;53.574;9.976;2023-07-31T06:15:57;15.40;99.90
14749;DHT22;7466;53.574;9.976;2023-07-31T06:18:25;15.40;99.90
14749;DHT22;7466;53.574;9.976;2023-07-31T06:20:51;15.40;99.90
14749;DHT22;7466;53.574;9.976;2023-07-31T06:23:19;15.50;99.90
14749;DHT22;7466;53.574;9.976;2023-07-31T06:25:46;15.60;99.90
14749;DHT22;7466;53.574;9.976;2023-07-31T06:28:12;15.50;99.90
14749;DHT22;7466;53.574;9.976;2023-07-31T06:30:39;15.50;99.90
14749;DHT22;7466;53.574;9.976;2023-07-31T06:33:07;15.60;99.90
14749;DHT22;7466;53.574;9.976;2023-07-31T06:35:34;15.60;99.90
14749;DHT22;7466;53.574;9.976;2023-07-31T06:38:01;15.50;99.90
14749;DHT22;7466;53.574;9.976;2023-07-31T06:40:28;15.50;99.90
14749;DHT22;7466;53.574;9.976;2023-07-31T06:42:54;15.60;99.90
14749;DHT22;7466;53.574;9.976;2023-07-31T06:45:21;15.60;99.90
14749;DHT22;7466;53.574;9.976;2023-07-31T06:47:48;15.60;99.90
14749;DHT22;7466;53.574;9.976;2023-07-31T06:50:16;15.50;99.90
14749;DHT22;7466;53.574;9.976;2023-07-31T06:52:43;15.50;99.90
14749;DHT22;7466;53.574;9.976;2023-07-31T06:55:17;15.50;99.90
14749;DHT22;7466;53.574;9.976;2023-07-31T06:57:44;15.50;99.90
14749;DHT22;7466;53.574;9.976;2023-07-31T07:00:12;15.60;99.90
14749;DHT22;7466;53.574;9.976;2023-07-31T07:02:39;15.60;99.90
14749;DHT22;7466;53.574;9.976;2023-07-31T07:05:06;15.60;99.90
14749;DHT22;7466;53.574;9.976;2023-07-31T07:07:35;15.60;99.90
14749;DHT22;7466;53.574;9.976;2023-07-31T07:10:03;15.70;99.90
14749;DHT22;7466;53.574;9.976;2023-07-31T07:12:31;15.70;99.90
14749;DHT22;7466;53.574;9.976;2023-07-31T07:14:58;15.70;99.90
14749;DHT22;7466;53.574;9.976;2023-07-31T07:17:25;15.70;99.90
14749;DHT22;7466;53.574;9.976;2023-07-31T07:19:52;15.60;99.90
14749;DHT22;7466;53.574;9.976;2023-07-31T07:22:19;15.60;99.90
14749;DHT22;7466;53.574;9.976;2023-07-31T07:24:47;15.60;99.90
14749;DHT22;7466;53.574;9.976;2023-07-31T07:27:14;15.70;99.90
14749;DHT22;7466;53.574;9.976;2023-07-31T07:29:40;15.60;99.90
14749;DHT22;7466;53.574;9.976;2023-07-31T07:32:08;15.60;99.90
14749;DHT22;7466;53.574;9.976;2023-07-31T07:34:34;15.70;99.90
14749;DHT22;7466;53.574;9.976;2023-07-31T07:37:01;15.60;99.90
14749;DHT22;7466;53.574;9.976;2023-07-31T07:39:28;15.70;99.90
14749;DHT22;7466;53.574;9.976;2023-07-31T07:41:57;15.70;99.90
14749;DHT22;7466;53.574;9.976;2023-07-31T07:44:23;15.70;99.90
14749;DHT22;7466;53.574;9.976;2023-07-31T07:46:50;15.70;99.90
14749;DHT22;7466;53.574;9.976;2023-07-31T07:49:18;15.70;99.90
14749;DHT22;7466;53.574;9.976;2023-07-31T07:51:44;15.70;99.90
14749;DHT22;7466;53.574;9.976;2023-07-31T07:54:11;15.70;99.90
14749;DHT22;7466;53.574;9.976;2023-07-31T07:56:38;15.80;99.90
14749;DHT22;7466;53.574;9.976;2023-07-31T07:59:06;15.80;99.90
14749;DHT22;7466;53.574;9.976;2023-07-31T08:01:33;15.80;99.90
14749;DHT22;7466;53.574;9.976;2023-07-31T08:04:00;15.80;99.90
14749;DHT22;7466;53.574;9.976;2023-07-31T08:06:27;16.00;99.90
14749;DHT22;7466;53.574;9.976;2023-07-31T08:08:55;16.10;99.90
14749;DHT22;7466;53.574;9.976;2023-07-31T08:11:21;16.20;99.90
14749;DHT22;7466;53.574;9.976;2023-07-31T08:13:49;16.30;99.90
14749;DHT22;7466;53.574;9.976;2023-07-31T08:16:17;16.40;99.90
14749;DHT22;7466;53.574;9.976;2023-07-31T08:18:44;16.30;99.90
14749;DHT22;7466;53.574;9.976;2023-07-31T08:21:10;16.40;99.90
14749;DHT22;7466;53.574;9.976;2023-07-31T08:23:37;16.40;99.90
14749;DHT22;7466;53.574;9.976;2023-07-31T08:26:04;16.40;99.90
14749;DHT22;7466;53.574;9.976;2023-07-31T08:28:30;16.60;99.90
14749;DHT22;7466;53.574;9.976;2023-07-31T08:30:57;16.50;99.90
14749;DHT22;7466;53.574;9.976;2023-07-31T08:33:25;16.60;99.90
14749;DHT22;7466;53.574;9.976;2023-07-31T08:35:52;16.80;99.90
14749;DHT22;7466;53.574;9.976;2023-07-31T08:38:19;16.90;99.90
14749;DHT22;7466;53.574;9.976;2023-07-31T08:40:46;17.00;99.90
14749;DHT22;7466;53.574;9.976;2023-07-31T08:43:13;16.90;99.90
14749;DHT22;7466;53.574;9.976;2023-07-31T08:45:42;17.10;99.90
14749;DHT22;7466;53.574;9.976;2023-07-31T08:48:08;17.10;99.90
14749;DHT22;7466;53.574;9.976;2023-07-31T08:50:38;17.20;99.90
14749;DHT22;7466;53.574;9.976;2023-07-31T08:53:04;17.20;99.90
14749;DHT22;7466;53.574;9.976;2023-07-31T08:55:32;17.20;99.90
14749;DHT22;7466;53.574;9.976;2023-07-31T08:58:01;17.10;99.90
14749;DHT22;7466;53.574;9.976;2023-07-31T09:00:30;17.10;99.90
14749;DHT22;7466;53.574;9.976;2023-07-31T09:03:00;17.10;99.90
14749;DHT22;7466;53.574;9.976;2023-07-31T09:05:29;17.20;99.90
14749;DHT22;7466;53.574;9.976;2023-07-31T09:07:58;17.20;99.90
14749;DHT22;7466;53.574;9.976;2023-07-31T09:10:25;17.10;99.90
14749;DHT22;7466;53.574;9.976;2023-07-31T09:12:52;17.00;99.90
14749;DHT22;7466;53.574;9.976;2023-07-31T09:15:19;16.80;99.90
14749;DHT22;7466;53.574;9.976;2023-07-31T09:17:46;16.80;99.90
14749;DHT22;7466;53.574;9.976;2023-07-31T09:20:14;16.70;99.90
14749;DHT22;7466;53.574;9.976;2023-07-31T09:22:41;16.80;99.90
14749;DHT22;7466;53.574;9.976;2023-07-31T09:25:16;16.90;99.90
14749;DHT22;7466;53.574;9.976;2023-07-31T09:27:48;16.80;99.90
14749;DHT22;7466;53.574;9.976;2023-07-31T09:30:15;17.00;99.90
14749;DHT22;7466;53.574;9.976;2023-07-31T09:32:43;17.00;99.90
14749;DHT22;7466;53.574;9.976;2023-07-31T09:35:18;17.00;99.90
14749;DHT22;7466;53.574;9.976;2023-07-31T09:37:49;17.20;99.90
14749;DHT22;7466;53.574;9.976;2023-07-31T09:40:26;17.10;99.90
14749;DHT22;7466;53.574;9.976;2023-07-31T09:42:55;16.90;99.90
14749;DHT22;7466;53.574;9.976;2023-07-31T09:45:23;17.10;99.90
14749;DHT22;7466;53.574;9.976;2023-07-31T09:47:49;17.10;99.90
14749;DHT22;7466;53.574;9.976;2023-07-31T09:50:16;17.10;99.90
14749;DHT22;7466;53.574;9.976;2023-07-31T09:52:43;17.20;99.90
14749;DHT22;7466;53.574;9.976;2023-07-31T09:55:10;17.40;99.90
14749;DHT22;7466;53.574;9.976;2023-07-31T09:57:40;17.40;99.90
14749;DHT22;7466;53.574;9.976;2023-07-31T10:00:08;17.20;99.90
14749;DHT22;7466;53.574;9.976;2023-07-31T10:02:36;17.10;99.90
14749;DHT22;7466;53.574;9.976;2023-07-31T10:05:04;17.00;99.90
14749;DHT22;7466;53.574;9.976;2023-07-31T10:07:36;16.90;99.90
14749;DHT22;7466;53.574;9.976;2023-07-31T10:10:04;16.70;99.90
14749;DHT22;7466;53.574;9.976;2023-07-31T10:12:33;16.70;99.90
14749;DHT22;7466;53.574;9.976;2023-07-31T10:15:03;16.90;99.90
14749;DHT22;7466;53.574;9.976;2023-07-31T10:17:30;17.00;99.90
14749;DHT22;7466;53.574;9.976;2023-07-31T10:19:58;17.20;99.90
14749;DHT22;7466;53.574;9.976;2023-07-31T10:22:26;17.10;99.90
14749;DHT22;7466;53.574;9.976;2023-07-31T10:24:55;17.10;99.90
14749;DHT22;7466;53.574;9.976;2023-07-31T10:27:23;17.10;99.90
14749;DHT22;7466;53.574;9.976;2023-07-31T10:29:52;17.10;99.90
14749;DHT22;7466;53.574;9.976;2023-07-31T10:32:20;17.00;99.90
14749;DHT22;7466;53.574;9.976;2023-07-31T10:34:48;17.20;99.90
14749;DHT22;7466;53.574;9.976;2023-07-31T10:37:23;17.30;99.90
14749;DHT22;7466;53.574;9.976;2023-07-31T10:40:00;17.30;99.90
14749;DHT22;7466;53.574;9.976;2023-07-31T10:42:29;17.30;99.90
14749;DHT22;7466;53.574;9.976;2023-07-31T10:45:00;17.20;99.90
14749;DHT22;7466;53.574;9.976;2023-07-31T10:47:28;17.20;99.90
14749;DHT22;7466;53.574;9.976;2023-07-31T10:50:13;17.00;99.90
14749;DHT22;7466;53.574;9.976;2023-07-31T10:52:45;16.90;99.90
14749;DHT22;7466;53.574;9.976;2023-07-31T10:55:30;16.90;99.90
14749;DHT22;7466;53.574;9.976;2023-07-31T10:57:58;16.90;99.90
14749;DHT22;7466;53.574;9.976;2023-07-31T11:00:31;16.80;99.90
14749;DHT22;7466;53.574;9.976;2023-07-31T11:03:03;16.80;99.90
14749;DHT22;7466;53.574;9.976;2023-07-31T11:05:44;16.90;99.90
14749;DHT22;7466;53.574;9.976;2023-07-31T11:08:15;16.90;99.90
14749;DHT22;7466;53.574;9.976;2023-07-31T11:10:43;16.90;99.90
14749;DHT22;7466;53.574;9.976;2023-07-31T11:13:10;17.00;99.90
14749;DHT22;7466;53.574;9.976;2023-07-31T11:15:37;17.10;99.90
14749;DHT22;7466;53.574;9.976;2023-07-31T11:18:06;17.10;99.90
14749;DHT22;7466;53.574;9.976;2023-07-31T11:20:34;17.10;99.90
14749;DHT22;7466;53.574;9.976;2023-07-31T11:23:02;17.10;99.90
14749;DHT22;7466;53.574;9.976;2023-07-31T11:25:30;17.20;99.90
14749;DHT22;7466;53.574;9.976;2023-07-31T11:28:01;16.90;99.90
14749;DHT22;7466;53.574;9.976;2023-07-31T11:30:28;17.00;99.90
14749;DHT22;7466;53.574;9.976;2023-07-31T11:32:55;17.10;99.90
14749;DHT22;7466;53.574;9.976;2023-07-31T11:35:23;17.00;99.90
14749;DHT22;7466;53.574;9.976;2023-07-31T11:37:50;17.10;99.90
14749;DHT22;7466;53.574;9.976;2023-07-31T11:40:18;17.00;99.90
14749;DHT22;7466;53.574;9.976;2023-07-31T11:42:45;16.90;99.90
14749;DHT22;7466;53.574;9.976;2023-07-31T11:45:12;17.00;99.90
14749;DHT22;7466;53.574;9.976;2023-07-31T11:47:38;17.00;99.90
14749;DHT22;7466;53.574;9.976;2023-07-31T11:50:06;16.90;99.90
14749;DHT22;7466;53.574;9.976;2023-07-31T11:52:40;16.80;99.90
14749;DHT22;7466;53.574;9.976;2023-07-31T11:55:08;16.60;99.90
14749;DHT22;7466;53.574;9.976;2023-07-31T11:57:37;16.70;99.90
14749;DHT22;7466;53.574;9.976;2023-07-31T12:00:07;16.60;99.90
14749;DHT22;7466;53.574;9.976;2023-07-31T12:02:34;16.70;99.90
14749;DHT22;7466;53.574;9.976;2023-07-31T12:05:02;16.80;99.90
14749;DHT22;7466;53.574;9.976;2023-07-31T12:07:44;16.80;99.90
14749;DHT22;7466;53.574;9.976;2023-07-31T12:10:11;16.50;99.90
14749;DHT22;7466;53.574;9.976;2023-07-31T12:12:59;16.70;99.90
14749;DHT22;7466;53.574;9.976;2023-07-31T12:15:37;16.80;99.90
14749;DHT22;7466;53.574;9.976;2023-07-31T12:18:06;16.90;99.90
14749;DHT22;7466;53.574;9.976;2023-07-31T12:20:33;16.80;99.90
14749;DHT22;7466;53.574;9.976;2023-07-31T12:23:02;16.80;99.90
14749;DHT22;7466;53.574;9.976;2023-07-31T12:25:30;16.90;99.90
14749;DHT22;7466;53.574;9.976;2023-07-31T12:27:57;16.70;99.90
14749;DHT22;7466;53.574;9.976;2023-07-31T12:30:28;16.80;99.90
14749;DHT22;7466;53.574;9.976;2023-07-31T12:32:55;16.90;99.90
14749;DHT22;7466;53.574;9.976;2023-07-31T12:35:21;16.80;99.90
14749;DHT22;7466;53.574;9.976;2023-07-31T12:37:48;16.80;99.90
14749;DHT22;7466;53.574;9.976;2023-07-31T12:40:16;16.90;99.90
14749;DHT22;7466;53.574;9.976;2023-07-31T12:42:43;16.80;99.90
14749;DHT22;7466;53.574;9.976;2023-07-31T12:45:10;16.90;99.90
14749;DHT22;7466;53.574;9.976;2023-07-31T12:47:36;16.70;99.90
14749;DHT22;7466;53.574;9.976;2023-07-31T12:50:04;16.60;99.90
14749;DHT22;7466;53.574;9.976;2023-07-31T12:52:31;16.60;99.90
14749;DHT22;7466;53.574;9.976;2023-07-31T12:54:57;16.60;99.90
14749;DHT22;7466;53.574;9.976;2023-07-31T12:57:25;16.70;99.90
14749;DHT22;7466;53.574;9.976;2023-07-31T12:59:52;16.80;99.90
14749;DHT22;7466;53.574;9.976;2023-07-31T13:02:19;16.80;99.90
14749;DHT22;7466;53.574;9.976;2023-07-31T13:04:45;17.00;99.90
14749;DHT22;7466;53.574;9.976;2023-07-31T13:07:12;17.00;99.90
14749;DHT22;7466;53.574;9.976;2023-07-31T13:09:39;17.10;99.90
14749;DHT22;7466;53.574;9.976;2023-07-31T13:12:06;17.10;99.90
14749;DHT22;7466;53.574;9.976;2023-07-31T13:14:34;17.00;99.90
14749;DHT22;7466;53.574;9.976;2023-07-31T13:17:01;17.10;99.90
14749;DHT22;7466;53.574;9.976;2023-07-31T13:19:28;17.10;99.90
14749;DHT22;7466;53.574;9.976;2023-07-31T13:21:54;16.90;99.90
14749;DHT22;7466;53.574;9.976;2023-07-31T13:24:21;16.90;99.90
14749;DHT22;7466;53.574;9.976;2023-07-31T13:26:48;17.00;99.90
14749;DHT22;7466;53.574;9.976;2023-07-31T13:29:14;17.00;99.90
14749;DHT22;7466;53.574;9.976;2023-07-31T13:31:42;17.00;99.90
14749;DHT22;7466;53.574;9.976;2023-07-31T13:34:09;17.10;99.90
14749;DHT22;7466;53.574;9.976;2023-07-31T13:36:36;17.10;99.90
14749;DHT22;7466;53.574;9.976;2023-07-31T13:39:02;17.20;99.90
14749;DHT22;7466;53.574;9.976;2023-07-31T13:41:29;17.20;99.90
14749;DHT22;7466;53.574;9.976;2023-07-31T13:43:56;17.30;99.90
14749;DHT22;7466;53.574;9.976;2023-07-31T13:46:23;17.30;99.90
14749;DHT22;7466;53.574;9.976;2023-07-31T13:48:52;17.30;99.90
14749;DHT22;7466;53.574;9.976;2023-07-31T13:51:21;17.30;99.90
14749;DHT22;7466;53.574;9.976;2023-07-31T13:53:47;17.30;99.90
14749;DHT22;7466;53.574;9.976;2023-07-31T13:56:14;17.20;99.90
14749;DHT22;7466;53.574;9.976;2023-07-31T13:58:41;17.20;99.90
14749;DHT22;7466;53.574;9.976;2023-07-31T14:01:07;17.20;99.90
14749;DHT22;7466;53.574;9.976;2023-07-31T14:03:34;17.20;99.90
14749;DHT22;7466;53.574;9.976;2023-07-31T14:06:02;17.20;99.90
14749;DHT22;7466;53.574;9.976;2023-07-31T14:08:29;17.20;99.90
14749;DHT22;7466;53.574;9.976;2023-07-31T14:10:56;17.30;99.90
14749;DHT22;7466;53.574;9.976;2023-07-31T14:13:23;17.30;99.90
14749;DHT22;7466;53.574;9.976;2023-07-31T14:15:49;17.30;99.90
14749;DHT22;7466;53.574;9.976;2023-07-31T14:18:17;17.30;99.90
14749;DHT22;7466;53.574;9.976;2023-07-31T14:20:44;17.40;99.90
14749;DHT22;7466;53.574;9.976;2023-07-31T14:23:12;17.40;99.90
14749;DHT22;7466;53.574;9.976;2023-07-31T14:25:38;17.40;99.90
14749;DHT22;7466;53.574;9.976;2023-07-31T14:28:05;17.40;99.90
14749;DHT22;7466;53.574;9.976;2023-07-31T14:30:32;17.40;99.90
14749;DHT22;7466;53.574;9.976;2023-07-31T14:32:58;17.40;99.90
14749;DHT22;7466;53.574;9.976;2023-07-31T14:35:27;17.40;99.90
14749;DHT22;7466;53.574;9.976;2023-07-31T14:37:54;17.30;99.90
14749;DHT22;7466;53.574;9.976;2023-07-31T14:40:22;17.30;99.90
14749;DHT22;7466;53.574;9.976;2023-07-31T14:42:49;17.40;99.90
14749;DHT22;7466;53.574;9.976;2023-07-31T14:45:15;17.40;99.90
14749;DHT22;7466;53.574;9.976;2023-07-31T14:47:42;17.50;99.90
14749;DHT22;7466;53.574;9.976;2023-07-31T14:50:09;17.60;99.90
14749;DHT22;7466;53.574;9.976;2023-07-31T14:52:36;17.60;99.90
14749;DHT22;7466;53.574;9.976;2023-07-31T14:55:03;17.70;99.90
14749;DHT22;7466;53.574;9.976;2023-07-31T14:57:31;17.70;99.90
14749;DHT22;7466;53.574;9.976;2023-07-31T14:59:58;17.70;99.90
14749;DHT22;7466;53.574;9.976;2023-07-31T15:02:26;17.70;99.90
14749;DHT22;7466;53.574;9.976;2023-07-31T15:04:52;17.60;99.90
14749;DHT22;7466;53.574;9.976;2023-07-31T15:07:19;17.60;99.90
14749;DHT22;7466;53.574;9.976;2023-07-31T15:09:46;17.60;99.90
14749;DHT22;7466;53.574;9.976;2023-07-31T15:12:12;17.50;99.90
14749;DHT22;7466;53.574;9.976;2023-07-31T15:14:40;17.50;99.90
14749;DHT22;7466;53.574;9.976;2023-07-31T15:17:07;17.50;99.90
14749;DHT22;7466;53.574;9.976;2023-07-31T15:19:34;17.60;99.90
14749;DHT22;7466;53.574;9.976;2023-07-31T15:22:02;17.60;99.90
14749;DHT22;7466;53.574;9.976;2023-07-31T15:24:29;17.60;99.90
14749;DHT22;7466;53.574;9.976;2023-07-31T15:26:55;17.60;99.90
14749;DHT22;7466;53.574;9.976;2023-07-31T15:29:22;17.70;99.90
14749;DHT22;7466;53.574;9.976;2023-07-31T15:31:50;17.70;99.90
14749;DHT22;7466;53.574;9.976;2023-07-31T15:34:17;17.70;99.90
14749;DHT22;7466;53.574;9.976;2023-07-31T15:36:44;17.80;99.90
14749;DHT22;7466;53.574;9.976;2023-07-31T15:39:11;17.80;99.90
14749;DHT22;7466;53.574;9.976;2023-07-31T15:41:38;17.80;99.90
14749;DHT22;7466;53.574;9.976;2023-07-31T15:44:05;17.70;99.90
14749;DHT22;7466;53.574;9.976;2023-07-31T15:46:32;17.70;99.90
14749;DHT22;7466;53.574;9.976;2023-07-31T15:49:00;17.70;99.90